createdAt,value
2023-03-16T00:02:09.457Z,158988.50
2023-03-16T00:05:14.665Z,159010.66
2023-03-16T00:08:19.594Z,158991.13
2023-03-16T00:11:23.742Z,158982.00
2023-03-16T00:14:27.983Z,158980.69
2023-03-16T00:17:32.291Z,158974.19
2023-03-16T00:20:36.426Z,158939.03
2023-03-16T00:23:40.490Z,158935.16
2023-03-16T00:26:48.566Z,158944.28
2023-03-16T00:29:57.002Z,158958.56
2023-03-16T00:33:02.067Z,158961.16
2023-03-16T00:36:09.336Z,158952.03
2023-03-16T00:39:14.842Z,158935.16
2023-03-16T00:42:20.013Z,158954.66
2023-03-16T00:45:24.034Z,158937.78
2023-03-16T00:48:28.073Z,158924.75
2023-03-16T00:51:33.895Z,158909.13
2023-03-16T00:54:37.981Z,158906.50
2023-03-16T00:57:41.850Z,158901.34
2023-03-16T01:00:46.514Z,158901.34
2023-03-16T01:03:50.490Z,158889.56
2023-03-16T01:06:55.364Z,158892.22
2023-03-16T01:09:59.704Z,158902.59
2023-03-16T01:13:04.161Z,158900.00
2023-03-16T01:16:08.550Z,158889.56
2023-03-16T01:19:13.194Z,158886.97
2023-03-16T01:22:17.826Z,158879.16
2023-03-16T01:25:21.797Z,158893.47
2023-03-16T01:28:29.006Z,158889.56
2023-03-16T01:31:33.278Z,158876.59
2023-03-16T01:34:37.631Z,158879.16
2023-03-16T01:37:41.742Z,158883.09
2023-03-16T01:40:45.776Z,158875.28
2023-03-16T01:43:51.827Z,158873.94
2023-03-16T01:46:56.473Z,158870.03
2023-03-16T01:50:00.489Z,158846.63
2023-03-16T01:53:04.461Z,158875.28
2023-03-16T01:56:11.122Z,158862.25
2023-03-16T01:59:18.180Z,158854.44
2023-03-16T02:02:25.796Z,158844.00
2023-03-16T02:05:37.514Z,158827.13
2023-03-16T02:08:43.645Z,158811.44
2023-03-16T02:11:48.606Z,158807.53
2023-03-16T02:14:53.257Z,158807.53
2023-03-16T02:18:00.080Z,158828.38
2023-03-16T02:21:16.204Z,158818.00
2023-03-16T02:24:21.037Z,158814.09
2023-03-16T02:27:42.730Z,158797.16
2023-03-16T02:30:47.791Z,158798.44
2023-03-16T02:33:54.022Z,158793.25
2023-03-16T02:36:59.258Z,158782.81
2023-03-16T02:40:29.152Z,158781.56
2023-03-16T02:43:36.127Z,158776.31
2023-03-16T02:46:43.503Z,158752.88
2023-03-16T02:49:47.769Z,158775.00
2023-03-16T02:52:51.957Z,158756.81
2023-03-16T02:55:56.148Z,158764.63
2023-03-16T02:59:01.184Z,158771.13
2023-03-16T03:02:05.218Z,158789.34
2023-03-16T03:05:09.390Z,158784.13
2023-03-16T03:08:13.763Z,158750.28
2023-03-16T03:11:19.607Z,158734.69
2023-03-16T03:14:25.286Z,158742.47
2023-03-16T03:17:32.105Z,158746.38
2023-03-16T03:20:35.950Z,158751.59
2023-03-16T03:23:40.452Z,158742.47
2023-03-16T03:26:45.012Z,158743.78
2023-03-16T03:29:49.436Z,158726.88
2023-03-16T03:32:54.173Z,158732.09
2023-03-16T03:35:59.711Z,158724.25
2023-03-16T03:39:05.158Z,158724.25
2023-03-16T03:42:09.338Z,158713.84
2023-03-16T03:45:14.463Z,158711.28
2023-03-16T03:48:18.311Z,158716.44
2023-03-16T03:51:22.552Z,158722.97
2023-03-16T03:54:26.480Z,158725.56
2023-03-16T03:57:30.727Z,158728.13
2023-03-16T04:00:35.662Z,158720.34
2023-03-16T04:03:39.471Z,158726.88
2023-03-16T04:06:43.618Z,158719.06
2023-03-16T04:09:47.344Z,158716.44
2023-03-16T04:12:51.390Z,158717.75
2023-03-16T04:15:59.639Z,158716.44
2023-03-16T04:19:04.347Z,158715.16
2023-03-16T04:22:08.710Z,158715.16
2023-03-16T04:25:14.912Z,158709.94
2023-03-16T04:28:18.936Z,158712.53
2023-03-16T04:31:23.195Z,158707.38
2023-03-16T04:34:27.252Z,158696.94
2023-03-16T04:37:31.617Z,158700.81
2023-03-16T04:40:35.545Z,158698.25
2023-03-16T04:43:39.707Z,158693.03
2023-03-16T04:46:43.617Z,158702.16
2023-03-16T04:49:47.882Z,158683.97
2023-03-16T04:52:52.135Z,158702.16
2023-03-16T04:55:56.363Z,158711.28
2023-03-16T04:59:00.391Z,158687.84
2023-03-16T05:02:04.515Z,158698.25
2023-03-16T05:05:09.085Z,158687.84
2023-03-16T05:08:13.335Z,158674.84
2023-03-16T05:11:17.505Z,158681.38
2023-03-16T05:14:21.319Z,158683.97
2023-03-16T05:17:25.522Z,158683.97
2023-03-16T05:20:30.106Z,158676.16
2023-03-16T05:23:34.398Z,158678.75
2023-03-16T05:26:38.786Z,158682.69
2023-03-16T05:29:46.695Z,158685.28
2023-03-16T05:32:51.332Z,158686.59
2023-03-16T05:35:54.992Z,158711.28
2023-03-16T05:38:59.357Z,158712.53
2023-03-16T05:42:05.733Z,158711.28
2023-03-16T05:45:11.362Z,158703.41
2023-03-16T05:48:15.587Z,158724.25
2023-03-16T05:51:19.487Z,158721.66
2023-03-16T05:54:24.192Z,158736.00
2023-03-16T05:57:29.003Z,158737.25
2023-03-16T06:00:33.040Z,158736.00
2023-03-16T06:03:37.322Z,158741.16
2023-03-16T06:06:40.994Z,158769.78
2023-03-16T06:09:44.777Z,158777.59
2023-03-16T06:12:49.208Z,158773.69
2023-03-16T06:15:53.599Z,158781.56
2023-03-16T06:18:59.755Z,158789.34
2023-03-16T06:22:03.923Z,158799.75
2023-03-16T06:25:09.885Z,158829.69
2023-03-16T06:28:14.405Z,158844.00
2023-03-16T06:31:19.083Z,158864.81
2023-03-16T06:34:23.289Z,158883.09
2023-03-16T06:37:28.424Z,158928.66
2023-03-16T06:40:33.354Z,158944.28
2023-03-16T06:43:37.480Z,158932.56
2023-03-16T06:46:41.677Z,158955.94
2023-03-16T06:49:46.994Z,158945.59
2023-03-16T06:52:51.605Z,158963.75
2023-03-16T06:55:55.488Z,158946.84
2023-03-16T06:58:59.803Z,158966.38
2023-03-16T07:02:04.677Z,158970.28
2023-03-16T07:05:13.026Z,159006.75
2023-03-16T07:08:17.418Z,159213.81
2023-03-16T07:11:21.462Z,159710.47
2023-03-16T07:14:26.261Z,160135.75
2023-03-16T07:17:30.135Z,160366.78
2023-03-16T07:20:35.256Z,160494.78
2023-03-16T07:23:40.484Z,160366.78
2023-03-16T07:26:44.671Z,160335.47
2023-03-16T07:29:49.456Z,160248.00
2023-03-16T07:32:53.757Z,160173.59
2023-03-16T07:35:58.547Z,160189.28
2023-03-16T07:39:03.569Z,160197.06
2023-03-16T07:42:08.474Z,160254.53
2023-03-16T07:45:14.340Z,160225.81
2023-03-16T07:48:19.341Z,160353.75
2023-03-16T07:51:23.708Z,160522.19
2023-03-16T07:54:27.757Z,160554.88
2023-03-16T07:57:31.816Z,160603.25
2023-03-16T08:00:36.860Z,160701.19
2023-03-16T08:03:41.004Z,160641.09
2023-03-16T08:06:45.629Z,160595.41
2023-03-16T08:09:49.691Z,160727.34
2023-03-16T08:12:53.944Z,160816.19
2023-03-16T08:16:02.296Z,160735.19
2023-03-16T08:19:06.452Z,160801.81
2023-03-16T08:22:10.623Z,160816.19
2023-03-16T08:25:15.412Z,160745.69
2023-03-16T08:28:21.586Z,160707.75
2023-03-16T08:31:25.937Z,160720.81
2023-03-16T08:34:30.360Z,160669.84
2023-03-16T08:37:34.577Z,160604.56
2023-03-16T08:40:42.056Z,160588.81
2023-03-16T08:43:46.716Z,160553.56
2023-03-16T08:46:51.921Z,160578.44
2023-03-16T08:49:57.254Z,160599.31
2023-03-16T08:53:01.515Z,160667.19
2023-03-16T08:56:10.153Z,160654.19
2023-03-16T08:59:27.320Z,160664.59
2023-03-16T09:02:33.629Z,160676.38
2023-03-16T09:05:38.224Z,160692.00
2023-03-16T09:08:45.363Z,160672.44
2023-03-16T09:11:49.820Z,160737.78
2023-03-16T09:14:54.273Z,160791.34
2023-03-16T09:18:00.652Z,160727.34
2023-03-16T09:21:07.602Z,160745.69
2023-03-16T09:24:11.804Z,160735.19
2023-03-16T09:27:16.249Z,160735.19
2023-03-16T09:30:20.768Z,160737.78
2023-03-16T09:33:26.259Z,160688.13
2023-03-16T09:36:30.828Z,160654.19
2023-03-16T09:39:34.737Z,160699.91
2023-03-16T09:42:49.215Z,160723.41
2023-03-16T09:46:05.536Z,160727.34
2023-03-16T09:49:11.714Z,160720.81
2023-03-16T09:52:33.364Z,160671.13
2023-03-16T09:55:57.847Z,160665.91
2023-03-16T09:59:22.613Z,160660.72
2023-03-16T10:03:23.417Z,160634.56
2023-03-16T10:06:28.429Z,160588.81
2023-03-16T10:09:38.311Z,160580.97
2023-03-16T10:12:47.736Z,160552.25
2023-03-16T10:15:54.029Z,160530.09
2023-03-16T10:19:05.884Z,160510.47
2023-03-16T10:22:29.740Z,160490.84
2023-03-16T10:25:54.169Z,160549.63
2023-03-16T10:29:01.012Z,160570.59
2023-03-16T10:32:17.399Z,160570.59
2023-03-16T10:35:41.361Z,160600.63
2023-03-16T10:38:59.708Z,160612.34
2023-03-16T10:42:03.652Z,160616.28
2023-03-16T10:45:25.370Z,160629.38
2023-03-16T10:48:34.126Z,160635.84
2023-03-16T10:51:38.391Z,160633.31
2023-03-16T10:54:50.111Z,160625.47
2023-03-16T10:57:56.516Z,160688.13
2023-03-16T11:01:00.648Z,160754.75
2023-03-16T11:04:15.618Z,160761.31
2023-03-16T11:07:24.099Z,160786.16
2023-03-16T11:10:36.159Z,160821.44
2023-03-16T11:13:47.298Z,160845.00
2023-03-16T11:17:02.345Z,160816.19
2023-03-16T11:20:17.567Z,160884.16
2023-03-16T11:23:30.397Z,160943.00
2023-03-16T11:26:39.367Z,160890.69
2023-03-16T11:29:53.731Z,160885.47
2023-03-16T11:33:00.479Z,160902.47
2023-03-16T11:36:30.752Z,160855.38
2023-03-16T11:39:44.391Z,160871.09
2023-03-16T11:43:02.781Z,160831.91
2023-03-16T11:46:25.877Z,160843.66
2023-03-16T11:49:35.604Z,160860.66
2023-03-16T11:52:39.564Z,160897.25
2023-03-16T11:56:01.774Z,160929.91
2023-03-16T11:59:33.879Z,160950.81
2023-03-16T12:02:56.847Z,160926.03
2023-03-16T12:06:22.087Z,160978.25
2023-03-16T12:09:50.919Z,161008.34
2023-03-16T12:13:10.480Z,161017.53
2023-03-16T12:16:21.323Z,161046.25
2023-03-16T12:19:43.617Z,161076.34
2023-03-16T12:22:53.725Z,161090.75
2023-03-16T12:26:03.473Z,161132.56
2023-03-16T12:29:14.630Z,161179.69
2023-03-16T12:32:46.656Z,161183.56
2023-03-16T12:36:12.674Z,161197.94
2023-03-16T12:39:35.806Z,161173.09
2023-03-16T12:42:40.413Z,161239.81
2023-03-16T12:45:54.873Z,161258.13
2023-03-16T12:49:02.145Z,161214.94
2023-03-16T12:52:11.114Z,161258.13
2023-03-16T12:55:27.913Z,161208.41
2023-03-16T12:58:32.975Z,161187.50
2023-03-16T13:01:44.465Z,161175.75
2023-03-16T13:04:59.766Z,161163.97
2023-03-16T13:08:08.943Z,161153.50
2023-03-16T13:11:16.406Z,161170.50
2023-03-16T13:14:44.190Z,161154.84
2023-03-16T13:18:09.849Z,161204.53
2023-03-16T13:21:16.134Z,161226.75
2023-03-16T13:24:20.157Z,161205.75
2023-03-16T13:27:30.778Z,161195.34
2023-03-16T13:30:36.961Z,161174.44
2023-03-16T13:33:41.014Z,161229.34
2023-03-16T13:36:45.440Z,161220.19
2023-03-16T13:39:58.533Z,161213.66
2023-03-16T13:43:02.567Z,161186.16
2023-03-16T13:46:22.348Z,161152.19
2023-03-16T13:49:26.401Z,161200.59
2023-03-16T13:52:33.286Z,161192.75
2023-03-16T13:55:38.559Z,161190.09
2023-03-16T13:58:47.538Z,161220.19
2023-03-16T14:02:01.800Z,161195.34
2023-03-16T14:05:18.875Z,161209.75
2023-03-16T14:08:24.750Z,161212.34
2023-03-16T14:11:29.414Z,161190.09
2023-03-16T14:14:41.480Z,161156.09
2023-03-16T14:17:46.307Z,161148.25
2023-03-16T14:20:52.965Z,161161.31
2023-03-16T14:24:04.657Z,161166.56
2023-03-16T14:27:19.935Z,161178.34
2023-03-16T14:30:27.700Z,161165.25
2023-03-16T14:33:39.973Z,161220.19
2023-03-16T14:36:44.160Z,161205.75
2023-03-16T14:39:59.060Z,161234.59
2023-03-16T14:43:05.602Z,161174.44
2023-03-16T14:46:15.990Z,161154.84
2023-03-16T14:49:24.417Z,161150.91
2023-03-16T14:52:32.890Z,161174.44
2023-03-16T14:55:37.683Z,161231.94
2023-03-16T14:58:42.003Z,161354.97
2023-03-16T15:01:47.460Z,161323.53
2023-03-16T15:04:51.832Z,161318.25
2023-03-16T15:07:56.206Z,161258.13
2023-03-16T15:11:03.031Z,161213.66
2023-03-16T15:14:35.074Z,161186.16
2023-03-16T15:17:39.429Z,161120.78
2023-03-16T15:20:45.573Z,161092.00
2023-03-16T15:23:50.151Z,161060.63
2023-03-16T15:26:55.240Z,161047.56
2023-03-16T15:29:58.863Z,160992.69
2023-03-16T15:33:03.335Z,161001.81
2023-03-16T15:36:18.984Z,160997.94
2023-03-16T15:39:24.986Z,160970.44
2023-03-16T15:42:28.997Z,160978.25
2023-03-16T15:45:33.497Z,160995.28
2023-03-16T15:48:38.913Z,160970.44
2023-03-16T15:51:43.219Z,160953.41
2023-03-16T15:54:48.440Z,161004.41
2023-03-16T15:57:58.989Z,160974.31
2023-03-16T16:01:04.683Z,160945.59
2023-03-16T16:04:15.597Z,160927.28
2023-03-16T16:07:20.121Z,160937.75
2023-03-16T16:10:25.762Z,160941.69
2023-03-16T16:13:43.663Z,160954.75
2023-03-16T16:16:49.183Z,160928.56
2023-03-16T16:19:53.571Z,160914.25
2023-03-16T16:23:03.048Z,160894.66
2023-03-16T16:26:12.815Z,160886.75
2023-03-16T16:29:22.090Z,160949.53
2023-03-16T16:32:26.410Z,160936.44
2023-03-16T16:35:31.361Z,160910.31
2023-03-16T16:38:36.087Z,160920.78
2023-03-16T16:41:40.692Z,160910.31
2023-03-16T16:44:44.893Z,160901.13
2023-03-16T16:47:52.267Z,160902.47
2023-03-16T16:50:56.669Z,160889.41
2023-03-16T16:54:02.070Z,160920.78
2023-03-16T16:57:17.081Z,160868.50
2023-03-16T17:00:23.873Z,160824.09
2023-03-16T17:03:29.361Z,160834.50
2023-03-16T17:06:33.318Z,160824.09
2023-03-16T17:09:37.578Z,160831.91
2023-03-16T17:12:41.596Z,160804.41
2023-03-16T17:15:45.768Z,160769.19
2023-03-16T17:18:49.889Z,160792.69
2023-03-16T17:21:55.984Z,160765.25
2023-03-16T17:25:00.564Z,160754.75
2023-03-16T17:28:05.608Z,160748.22
2023-03-16T17:31:12.761Z,160794.00
2023-03-16T17:34:25.425Z,160788.75
2023-03-16T17:37:30.026Z,160775.66
2023-03-16T17:40:34.377Z,160760.00
2023-03-16T17:43:38.684Z,160754.75
2023-03-16T17:46:42.916Z,160748.22
2023-03-16T17:49:49.144Z,160746.91
2023-03-16T17:52:53.249Z,160756.09
2023-03-16T17:55:57.591Z,160760.00
2023-03-16T17:59:05.446Z,160753.47
2023-03-16T18:02:49.626Z,160729.94
2023-03-16T18:05:53.622Z,160728.66
2023-03-16T18:08:58.172Z,160709.03
2023-03-16T18:12:02.294Z,160688.13
2023-03-16T18:15:07.074Z,160711.69
2023-03-16T18:18:18.805Z,160685.53
2023-03-16T18:21:24.606Z,160637.19
2023-03-16T18:24:28.752Z,160618.88
2023-03-16T18:27:34.467Z,160621.47
2023-03-16T18:30:41.245Z,160622.81
2023-03-16T18:33:46.672Z,160591.47
2023-03-16T18:36:53.345Z,160601.91
2023-03-16T18:39:58.108Z,160577.09
2023-03-16T18:43:02.531Z,160578.44
2023-03-16T18:46:20.391Z,160586.22
2023-03-16T18:49:33.517Z,160566.66
2023-03-16T18:52:39.137Z,160560.09
2023-03-16T18:55:44.957Z,160534.00
2023-03-16T18:58:50.127Z,160530.09
2023-03-16T19:01:54.524Z,160534.00
2023-03-16T19:05:02.021Z,160530.09
2023-03-16T19:08:06.699Z,160520.91
2023-03-16T19:11:13.251Z,160497.38
2023-03-16T19:14:24.464Z,160485.66
2023-03-16T19:17:28.902Z,160455.66
2023-03-16T19:20:34.774Z,160477.81
2023-03-16T19:23:39.342Z,160446.50
2023-03-16T19:26:43.861Z,160460.78
2023-03-16T19:29:51.566Z,160426.88
2023-03-16T19:32:56.953Z,160403.34
2023-03-16T19:36:01.183Z,160411.19
2023-03-16T19:39:05.630Z,160386.41
2023-03-16T19:42:20.451Z,160365.47
2023-03-16T19:45:33.209Z,160391.63
2023-03-16T19:48:37.609Z,160387.72
2023-03-16T19:51:41.547Z,160402.03
2023-03-16T19:54:46.072Z,160360.31
2023-03-16T19:57:58.333Z,160362.94
2023-03-16T20:01:02.630Z,160385.13
2023-03-16T20:04:15.301Z,160379.88
2023-03-16T20:07:19.200Z,160391.63
2023-03-16T20:10:26.204Z,160379.88
2023-03-16T20:13:31.463Z,160364.25
2023-03-16T20:16:36.163Z,160383.78
2023-03-16T20:19:40.290Z,160382.47
2023-03-16T20:22:44.154Z,160353.75
2023-03-16T20:25:48.835Z,160353.75
2023-03-16T20:28:53.184Z,160356.41
2023-03-16T20:31:58.171Z,160377.22
2023-03-16T20:35:02.363Z,160362.94
2023-03-16T20:38:12.738Z,160330.22
2023-03-16T20:41:29.248Z,160321.13
2023-03-16T20:44:33.262Z,160328.97
2023-03-16T20:47:37.573Z,160288.47
2023-03-16T20:50:42.054Z,160283.25
2023-03-16T20:53:47.328Z,160278.00
2023-03-16T20:56:51.525Z,160267.56
2023-03-16T20:59:56.481Z,160259.78
2023-03-16T21:03:02.193Z,160234.94
2023-03-16T21:06:10.231Z,160249.28
2023-03-16T21:09:14.635Z,160225.81
2023-03-16T21:12:31.914Z,160240.19
2023-03-16T21:15:36.280Z,160236.25
2023-03-16T21:18:40.210Z,160225.81
2023-03-16T21:21:44.752Z,160180.13
2023-03-16T21:24:48.813Z,160195.75
2023-03-16T21:27:55.439Z,160194.47
2023-03-16T21:30:59.896Z,160186.69
2023-03-16T21:34:05.594Z,160197.06
2023-03-16T21:37:22.295Z,160180.13
2023-03-16T21:40:27.373Z,160164.44
2023-03-16T21:43:32.143Z,160164.44
2023-03-16T21:46:36.724Z,160172.28
2023-03-16T21:49:41.378Z,160157.88
2023-03-16T21:52:46.773Z,160173.59
2023-03-16T21:55:51.947Z,160182.72
2023-03-16T21:58:56.235Z,160151.41
2023-03-16T22:02:02.306Z,160160.53
2023-03-16T22:05:24.412Z,160140.97
2023-03-16T22:08:32.684Z,160157.88
2023-03-16T22:11:36.628Z,160143.56
2023-03-16T22:14:41.832Z,160124.00
2023-03-16T22:17:46.843Z,160131.81
2023-03-16T22:20:50.774Z,160147.50
2023-03-16T22:23:56.968Z,160144.91
2023-03-16T22:27:01.072Z,160142.25
2023-03-16T22:30:06.415Z,160105.72
2023-03-16T22:33:16.869Z,160103.13
2023-03-16T22:36:22.766Z,160113.56
2023-03-16T22:39:27.082Z,160096.56
2023-03-16T22:42:38.822Z,160109.63
2023-03-16T22:45:43.100Z,160077.03
2023-03-16T22:48:47.202Z,160090.06
2023-03-16T22:51:52.737Z,160084.81
2023-03-16T22:54:58.439Z,160058.72
2023-03-16T22:58:12.619Z,160063.97
2023-03-16T23:01:26.360Z,160043.03
2023-03-16T23:04:32.408Z,160053.53
2023-03-16T23:07:36.489Z,160048.28
2023-03-16T23:10:40.971Z,160018.28
2023-03-16T23:13:45.038Z,160028.75
2023-03-16T23:16:50.331Z,160022.19
2023-03-16T23:19:54.740Z,160039.19
2023-03-16T23:22:59.016Z,160020.91
2023-03-16T23:26:03.961Z,160024.84
2023-03-16T23:29:10.962Z,160041.78
2023-03-16T23:32:16.972Z,160041.78
2023-03-16T23:35:24.595Z,160030.03
2023-03-16T23:38:28.617Z,160032.66
2023-03-16T23:41:34.432Z,160014.34
2023-03-16T23:44:38.400Z,160005.19
2023-03-16T23:47:42.617Z,159990.91
2023-03-16T23:50:49.407Z,159998.75
2023-03-16T23:53:53.973Z,160014.34
2023-03-16T23:56:57.960Z,159976.50
